createdAt,value
2017-12-27T00:01:31.080Z,90.90
2017-12-27T00:04:04.223Z,91.20
2017-12-27T00:06:37.381Z,91.30
2017-12-27T00:09:10.551Z,91.30
2017-12-27T00:11:44.588Z,90.80
2017-12-27T00:14:17.816Z,90.80
2017-12-27T00:16:50.831Z,90.60
2017-12-27T00:19:24.746Z,90.70
2017-12-27T00:21:58.772Z,90.50
2017-12-27T00:24:31.897Z,90.50
2017-12-27T00:27:05.025Z,90.40
2017-12-27T00:29:38.957Z,90.70
2017-12-27T00:32:11.958Z,90.70
2017-12-27T00:34:39.388Z,90.70
2017-12-27T00:37:07.584Z,90.40
2017-12-27T00:39:35.034Z,90.40
2017-12-27T00:42:02.464Z,90.20
2017-12-27T00:44:29.903Z,90.40
2017-12-27T00:46:57.902Z,90.60
2017-12-27T00:49:26.098Z,90.80
2017-12-27T00:51:54.252Z,90.80
2017-12-27T00:54:22.445Z,91.40
2017-12-27T00:56:49.894Z,91.30
2017-12-27T00:59:18.080Z,91.20
2017-12-27T01:01:45.544Z,91.20
2017-12-27T01:04:12.961Z,91.00
2017-12-27T01:06:40.402Z,91.00
2017-12-27T01:09:07.855Z,91.00
2017-12-27T01:11:35.309Z,90.80
2017-12-27T01:14:02.741Z,90.80
2017-12-27T01:16:30.172Z,90.70
2017-12-27T01:18:58.372Z,91.20
2017-12-27T01:21:25.812Z,91.20
2017-12-27T01:23:53.244Z,91.20
2017-12-27T01:26:21.454Z,91.20
2017-12-27T01:28:48.890Z,91.20
2017-12-27T01:31:17.080Z,91.10
2017-12-27T01:33:44.517Z,91.00
2017-12-27T01:36:11.977Z,90.90
2017-12-27T01:38:40.152Z,90.60
2017-12-27T01:41:08.352Z,90.80
2017-12-27T01:43:35.775Z,90.80
2017-12-27T01:46:04.348Z,90.90
2017-12-27T01:48:31.789Z,90.80
2017-12-27T01:50:59.231Z,91.10
2017-12-27T01:53:27.416Z,91.10
2017-12-27T01:55:54.958Z,90.90
2017-12-27T01:58:22.376Z,90.70
2017-12-27T02:00:49.810Z,91.10
2017-12-27T02:03:17.237Z,90.50
2017-12-27T02:05:44.685Z,90.60
2017-12-27T02:08:12.121Z,90.20
2017-12-27T02:10:39.557Z,90.30
2017-12-27T02:13:07.753Z,89.80
2017-12-27T02:15:35.188Z,89.80
2017-12-27T02:18:03.384Z,89.10
2017-12-27T02:20:30.812Z,89.00
2017-12-27T02:22:59.025Z,89.40
2017-12-27T02:25:26.458Z,89.40
2017-12-27T02:27:54.662Z,89.90
2017-12-27T02:30:22.124Z,89.80
2017-12-27T02:32:49.565Z,90.40
2017-12-27T02:35:17.012Z,90.20
2017-12-27T02:37:44.448Z,90.40
2017-12-27T02:40:27.421Z,90.10
2017-12-27T02:42:54.849Z,90.10
2017-12-27T02:45:22.272Z,89.70
2017-12-27T02:47:50.472Z,89.30
2017-12-27T02:50:18.690Z,89.10
2017-12-27T02:52:46.821Z,89.10
2017-12-27T02:55:15.024Z,86.40
2017-12-27T02:57:42.532Z,86.40
2017-12-27T03:00:09.977Z,85.60
2017-12-27T03:02:37.417Z,85.00
2017-12-27T03:05:04.868Z,86.70
2017-12-27T03:07:33.137Z,87.10
2017-12-27T03:10:00.590Z,87.90
2017-12-27T03:12:27.996Z,87.50
2017-12-27T03:14:55.428Z,85.50
2017-12-27T03:17:22.876Z,84.10
2017-12-27T03:19:50.961Z,86.00
2017-12-27T03:22:18.400Z,86.70
2017-12-27T03:24:45.850Z,86.30
2017-12-27T03:27:13.284Z,86.30
2017-12-27T03:29:40.723Z,87.00
2017-12-27T03:32:08.937Z,85.50
2017-12-27T03:34:36.364Z,85.90
2017-12-27T03:37:04.572Z,85.70
2017-12-27T03:39:32.009Z,85.70
2017-12-27T03:42:00.213Z,86.60
2017-12-27T03:44:27.633Z,86.60
2017-12-27T03:46:55.836Z,86.60
2017-12-27T03:49:23.252Z,86.50
2017-12-27T03:51:54.277Z,85.90
2017-12-27T03:54:22.319Z,85.80
2017-12-27T03:56:49.776Z,84.70
2017-12-27T03:59:17.218Z,83.90
2017-12-27T04:01:44.666Z,84.30
2017-12-27T04:04:12.088Z,85.00
2017-12-27T04:06:40.297Z,82.80
2017-12-27T04:09:07.724Z,82.70
2017-12-27T04:11:36.225Z,81.40
2017-12-27T04:14:03.659Z,81.40
2017-12-27T04:16:31.868Z,82.30
2017-12-27T04:18:59.301Z,82.20
2017-12-27T04:21:27.502Z,83.50
2017-12-27T04:23:54.929Z,83.40
2017-12-27T04:26:23.120Z,81.30
2017-12-27T04:28:50.564Z,81.30
2017-12-27T04:31:18.765Z,80.80
2017-12-27T04:33:46.262Z,80.80
2017-12-27T04:36:14.524Z,80.70
2017-12-27T04:38:41.969Z,82.50
2017-12-27T04:41:09.408Z,82.70
2017-12-27T04:43:36.856Z,82.40
2017-12-27T04:46:05.059Z,80.80
2017-12-27T04:48:32.503Z,80.80
2017-12-27T04:50:59.944Z,80.60
2017-12-27T04:53:28.185Z,80.30
2017-12-27T04:55:55.644Z,80.20
2017-12-27T04:58:23.077Z,79.60
2017-12-27T05:00:50.521Z,79.10
2017-12-27T05:03:18.891Z,79.80
2017-12-27T05:05:46.336Z,79.50
2017-12-27T05:08:13.760Z,81.40
2017-12-27T05:10:41.209Z,79.80
2017-12-27T05:13:08.669Z,79.10
2017-12-27T05:15:36.649Z,78.40
2017-12-27T05:18:04.089Z,78.20
2017-12-27T05:20:31.531Z,78.20
2017-12-27T05:22:58.981Z,77.80
2017-12-27T05:25:26.406Z,78.40
2017-12-27T05:27:53.848Z,77.90
2017-12-27T05:30:22.370Z,76.50
2017-12-27T05:32:49.780Z,76.50
2017-12-27T05:35:17.991Z,78.80
2017-12-27T05:37:45.429Z,78.80
2017-12-27T05:40:13.632Z,79.70
2017-12-27T05:42:41.128Z,79.50
2017-12-27T05:45:08.532Z,80.10
2017-12-27T05:47:35.972Z,83.30
2017-12-27T05:50:04.179Z,82.50
2017-12-27T05:52:31.633Z,82.50
2017-12-27T05:54:59.080Z,82.30
2017-12-27T05:57:26.512Z,82.40
2017-12-27T05:59:54.727Z,84.90
2017-12-27T06:02:22.152Z,84.90
2017-12-27T06:04:50.361Z,85.70
2017-12-27T06:07:17.792Z,85.70
2017-12-27T06:09:45.252Z,86.40
2017-12-27T06:12:12.693Z,87.40
2017-12-27T06:14:40.901Z,88.50
2017-12-27T06:17:08.526Z,88.40
2017-12-27T06:19:36.728Z,89.60
2017-12-27T06:22:04.164Z,88.70
2017-12-27T06:24:32.386Z,90.70
2017-12-27T06:26:59.808Z,90.60
2017-12-27T06:29:27.291Z,90.70
2017-12-27T06:31:54.729Z,90.90
2017-12-27T06:34:22.925Z,91.50
2017-12-27T06:36:50.353Z,91.50
2017-12-27T06:39:18.557Z,91.60
2017-12-27T06:41:46.686Z,91.50
2017-12-27T06:44:14.173Z,91.20
2017-12-27T06:46:42.364Z,91.30
2017-12-27T06:49:09.831Z,91.30
2017-12-27T06:51:37.264Z,91.90
2017-12-27T06:54:04.720Z,91.50
2017-12-27T06:56:32.150Z,91.60
2017-12-27T06:59:00.370Z,91.70
2017-12-27T07:01:27.802Z,91.70
2017-12-27T07:03:56.199Z,91.60
2017-12-27T07:06:23.618Z,91.60
2017-12-27T07:08:52.235Z,91.90
2017-12-27T07:11:19.662Z,91.80
2017-12-27T07:13:47.876Z,91.90
2017-12-27T07:16:15.313Z,91.80
2017-12-27T07:18:42.753Z,92.00
2017-12-27T07:21:10.945Z,91.50
2017-12-27T07:23:38.372Z,91.50
2017-12-27T07:26:05.884Z,91.40
2017-12-27T07:28:33.417Z,91.60
2017-12-27T07:31:00.854Z,91.10
2017-12-27T07:33:28.298Z,90.80
2017-12-27T07:35:56.280Z,91.10
2017-12-27T07:38:26.052Z,91.80
2017-12-27T07:40:53.481Z,91.60
2017-12-27T07:43:20.934Z,91.90
2017-12-27T07:45:49.117Z,92.10
2017-12-27T07:48:16.557Z,92.10
2017-12-27T07:50:44.762Z,92.20
2017-12-27T07:53:12.191Z,92.20
2017-12-27T07:55:40.397Z,92.60
2017-12-27T07:58:07.825Z,92.60
2017-12-27T08:00:36.456Z,92.40
2017-12-27T08:03:03.897Z,92.40
2017-12-27T08:05:32.228Z,92.30
2017-12-27T08:08:00.441Z,93.20
2017-12-27T08:10:27.868Z,92.80
2017-12-27T08:12:56.086Z,92.70
2017-12-27T08:15:23.497Z,92.70
2017-12-27T08:17:51.701Z,92.90
2017-12-27T08:20:19.167Z,92.90
2017-12-27T08:22:46.597Z,93.00
2017-12-27T08:25:14.788Z,92.10
2017-12-27T08:27:42.233Z,92.10
2017-12-27T08:30:09.664Z,92.30
2017-12-27T08:32:37.093Z,92.40
2017-12-27T08:35:04.536Z,92.60
2017-12-27T08:37:31.960Z,92.20
2017-12-27T08:40:00.200Z,92.00
2017-12-27T08:42:27.637Z,92.00
2017-12-27T08:44:55.078Z,92.10
2017-12-27T08:47:22.508Z,92.00
2017-12-27T08:49:49.944Z,92.10
2017-12-27T08:52:17.375Z,92.20
2017-12-27T08:54:44.816Z,92.10
2017-12-27T08:57:12.230Z,92.30
2017-12-27T08:59:40.435Z,92.60
2017-12-27T09:02:07.864Z,92.60
2017-12-27T09:04:36.093Z,90.90
2017-12-27T09:07:03.525Z,90.90
2017-12-27T09:09:30.966Z,91.80
2017-12-27T09:11:58.398Z,92.60
2017-12-27T09:14:26.719Z,93.10
2017-12-27T09:16:54.381Z,92.70
2017-12-27T09:19:21.995Z,92.90
2017-12-27T09:21:53.748Z,92.60
2017-12-27T09:24:21.223Z,92.20
2017-12-27T09:26:49.445Z,92.60
2017-12-27T09:29:16.846Z,92.60
2017-12-27T09:31:44.272Z,92.00
2017-12-27T09:34:11.707Z,91.50
2017-12-27T09:36:39.166Z,92.30
2017-12-27T09:39:06.592Z,91.20
2017-12-27T09:41:34.787Z,92.10
2017-12-27T09:44:02.209Z,92.10
2017-12-27T09:46:30.399Z,92.20
2017-12-27T09:48:58.603Z,92.20
2017-12-27T09:51:26.255Z,92.20
2017-12-27T09:53:53.681Z,92.30
2017-12-27T09:56:21.109Z,92.10
2017-12-27T09:58:48.549Z,92.30
2017-12-27T10:01:15.972Z,92.10
2017-12-27T10:03:43.405Z,92.30
2017-12-27T10:06:11.626Z,91.30
2017-12-27T10:08:39.062Z,91.30
2017-12-27T10:11:06.509Z,90.80
2017-12-27T10:13:34.694Z,91.00
2017-12-27T10:16:02.140Z,91.00
2017-12-27T10:18:30.335Z,91.20
2017-12-27T10:20:57.773Z,91.20
2017-12-27T10:23:25.296Z,92.40
2017-12-27T10:25:52.731Z,92.40
2017-12-27T10:28:20.178Z,92.40
2017-12-27T10:30:47.612Z,92.30
2017-12-27T10:33:15.038Z,91.70
2017-12-27T10:35:42.477Z,92.50
2017-12-27T10:38:09.909Z,92.70
2017-12-27T10:40:37.347Z,92.90
2017-12-27T10:43:05.537Z,93.30
2017-12-27T10:45:32.961Z,93.20
2017-12-27T10:48:01.157Z,93.10
2017-12-27T10:50:28.588Z,93.10
2017-12-27T10:52:56.776Z,93.70
2017-12-27T10:55:25.180Z,93.70
2017-12-27T10:57:52.651Z,93.80
2017-12-27T11:00:20.066Z,93.70
2017-12-27T11:02:48.290Z,94.00
2017-12-27T11:05:15.708Z,93.90
2017-12-27T11:07:43.161Z,93.80
2017-12-27T11:10:10.581Z,93.60
2017-12-27T11:12:38.025Z,92.80
2017-12-27T11:15:05.465Z,92.60
2017-12-27T11:17:32.905Z,93.00
2017-12-27T11:20:00.328Z,92.50
2017-12-27T11:22:28.533Z,91.50
2017-12-27T11:24:56.003Z,91.50
2017-12-27T11:27:23.424Z,91.00
2017-12-27T11:29:51.630Z,91.20
2017-12-27T11:32:19.081Z,91.20
2017-12-27T11:34:46.505Z,91.40
2017-12-27T11:37:13.932Z,91.80
2017-12-27T11:39:41.381Z,92.30
2017-12-27T11:42:08.822Z,92.30
2017-12-27T11:44:36.257Z,91.70
2017-12-27T11:47:03.699Z,91.60
2017-12-27T11:49:31.889Z,92.30
2017-12-27T11:51:59.328Z,92.30
2017-12-27T11:54:27.588Z,92.40
2017-12-27T11:56:55.065Z,92.40
2017-12-27T11:59:23.268Z,92.40
2017-12-27T12:01:50.737Z,92.30
2017-12-27T12:04:18.202Z,91.90
2017-12-27T12:06:45.641Z,91.70
2017-12-27T12:09:13.081Z,91.40
2017-12-27T12:11:41.284Z,91.60
2017-12-27T12:14:08.712Z,91.60
2017-12-27T12:16:36.153Z,91.30
2017-12-27T12:19:03.594Z,91.20
2017-12-27T12:21:31.029Z,91.60
2017-12-27T12:23:58.469Z,91.50
2017-12-27T12:26:25.902Z,91.50
2017-12-27T12:28:53.335Z,91.40
2017-12-27T12:31:20.765Z,91.20
2017-12-27T12:33:48.204Z,90.80
2017-12-27T12:36:15.655Z,90.90
2017-12-27T12:38:43.089Z,90.40
2017-12-27T12:41:10.530Z,90.60
2017-12-27T12:43:38.753Z,90.00
2017-12-27T12:46:06.188Z,90.00
2017-12-27T12:48:33.632Z,90.40
2017-12-27T12:51:01.834Z,90.00
2017-12-27T12:53:29.268Z,90.00
2017-12-27T12:55:56.703Z,89.30
2017-12-27T12:58:24.147Z,90.00
2017-12-27T13:00:51.593Z,89.20
2017-12-27T13:03:19.026Z,88.80
2017-12-27T13:05:46.456Z,89.30
2017-12-27T13:08:13.889Z,89.90
2017-12-27T13:10:41.334Z,89.00
2017-12-27T13:13:08.777Z,89.20
2017-12-27T13:15:36.213Z,90.00
2017-12-27T13:18:03.652Z,90.00
2017-12-27T13:20:31.095Z,89.90
2017-12-27T13:22:59.345Z,90.00
2017-12-27T13:25:26.789Z,90.00
2017-12-27T13:27:54.236Z,89.00
2017-12-27T13:30:21.718Z,87.40
2017-12-27T13:32:49.153Z,88.20
2017-12-27T13:35:16.592Z,89.10
2017-12-27T13:37:44.065Z,88.90
2017-12-27T13:40:11.502Z,89.30
2017-12-27T13:42:38.949Z,88.60
2017-12-27T13:45:06.396Z,88.60
2017-12-27T13:47:33.853Z,88.80
2017-12-27T13:50:01.294Z,88.10
2017-12-27T13:52:29.499Z,88.30
2017-12-27T13:54:56.954Z,88.10
2017-12-27T13:57:24.385Z,88.70
2017-12-27T13:59:52.594Z,88.30
2017-12-27T14:02:20.033Z,88.20
2017-12-27T14:04:47.469Z,87.50
2017-12-27T14:07:15.685Z,88.30
2017-12-27T14:09:43.133Z,88.30
2017-12-27T14:12:10.564Z,89.10
2017-12-27T14:14:38.773Z,90.10
2017-12-27T14:17:06.204Z,90.10
2017-12-27T14:19:34.405Z,90.80
2017-12-27T14:22:01.868Z,90.80
2017-12-27T14:24:29.291Z,90.80
2017-12-27T14:26:57.480Z,90.20
2017-12-27T14:29:25.839Z,90.20
2017-12-27T14:31:54.062Z,88.70
2017-12-27T14:34:21.507Z,88.50
2017-12-27T14:36:48.945Z,89.10
2017-12-27T14:39:16.383Z,88.80
2017-12-27T14:41:44.586Z,87.80
2017-12-27T14:44:12.028Z,87.70
2017-12-27T14:46:40.216Z,89.00
2017-12-27T14:49:07.657Z,89.00
2017-12-27T14:51:35.849Z,89.60
2017-12-27T14:54:03.284Z,89.70
2017-12-27T14:56:31.475Z,88.80
2017-12-27T14:58:58.925Z,88.80
2017-12-27T15:01:26.409Z,87.90
2017-12-27T15:03:53.839Z,87.90
2017-12-27T15:06:22.041Z,89.90
2017-12-27T15:08:49.505Z,89.90
2017-12-27T15:11:16.937Z,89.30
2017-12-27T15:13:44.373Z,90.30
2017-12-27T15:16:12.578Z,90.10
2017-12-27T15:18:40.049Z,90.10
2017-12-27T15:21:07.477Z,89.40
2017-12-27T15:23:35.679Z,88.40
2017-12-27T15:26:03.108Z,88.40
2017-12-27T15:28:32.444Z,90.00
2017-12-27T15:30:59.876Z,90.00
2017-12-27T15:33:27.318Z,90.10
2017-12-27T15:35:55.617Z,90.40
2017-12-27T15:38:23.066Z,90.40
2017-12-27T15:40:51.257Z,91.10
2017-12-27T15:43:18.693Z,91.10
2017-12-27T15:45:46.133Z,91.00
2017-12-27T15:48:14.340Z,90.80
2017-12-27T15:50:41.776Z,90.80
2017-12-27T15:53:10.000Z,90.50
2017-12-27T15:55:37.443Z,90.50
2017-12-27T15:58:04.860Z,90.60
2017-12-27T16:00:33.976Z,90.40
2017-12-27T16:03:01.412Z,90.40
2017-12-27T16:05:29.614Z,90.00
2017-12-27T16:07:57.055Z,90.00
2017-12-27T16:10:26.170Z,90.10
2017-12-27T16:12:53.609Z,90.10
2017-12-27T16:15:21.816Z,90.20
2017-12-27T16:17:49.265Z,90.20
2017-12-27T16:20:16.717Z,90.20
2017-12-27T16:22:44.157Z,90.30
2017-12-27T16:25:12.365Z,90.60
2017-12-27T16:27:39.817Z,90.60
2017-12-27T16:30:07.257Z,90.70
2017-12-27T16:32:34.709Z,90.70
2017-12-27T16:35:02.176Z,90.80
2017-12-27T16:37:29.616Z,91.00
2017-12-27T16:39:57.815Z,90.80
2017-12-27T16:42:26.160Z,90.80
2017-12-27T16:44:54.380Z,91.00
2017-12-27T16:47:21.809Z,91.00
2017-12-27T16:49:50.009Z,91.30
2017-12-27T16:52:17.440Z,91.30
2017-12-27T16:54:44.871Z,91.20
2017-12-27T16:57:12.316Z,91.10
2017-12-27T16:59:39.764Z,91.10
2017-12-27T17:02:07.198Z,91.30
2017-12-27T17:04:34.637Z,91.50
2017-12-27T17:07:02.101Z,91.70
2017-12-27T17:09:29.492Z,92.00
2017-12-27T17:11:56.940Z,91.80
2017-12-27T17:14:24.369Z,91.50
2017-12-27T17:16:51.797Z,91.60
2017-12-27T17:19:20.017Z,91.80
2017-12-27T17:21:47.462Z,91.80
2017-12-27T17:24:14.909Z,91.80
2017-12-27T17:26:42.345Z,91.70
2017-12-27T17:29:10.561Z,92.40
2017-12-27T17:31:37.996Z,92.40
2017-12-27T17:34:05.682Z,92.40
2017-12-27T17:36:33.113Z,92.40
2017-12-27T17:39:00.536Z,92.40
2017-12-27T17:41:27.989Z,92.60
2017-12-27T17:43:55.448Z,92.60
2017-12-27T17:46:22.889Z,92.30
2017-12-27T17:48:50.338Z,92.20
2017-12-27T17:51:17.885Z,92.40
2017-12-27T17:53:45.293Z,92.90
2017-12-27T17:56:12.746Z,93.30
2017-12-27T17:58:40.168Z,94.20
2017-12-27T18:01:07.600Z,93.90
2017-12-27T18:03:35.037Z,93.40
2017-12-27T18:06:03.233Z,92.90
2017-12-27T18:08:30.668Z,92.90
2017-12-27T18:10:58.860Z,92.40
2017-12-27T18:13:26.543Z,92.40
2017-12-27T18:15:53.965Z,92.60
2017-12-27T18:18:22.156Z,92.20
2017-12-27T18:20:49.592Z,92.20
2017-12-27T18:23:17.794Z,92.10
2017-12-27T18:25:45.249Z,92.00
2017-12-27T18:28:13.444Z,92.60
2017-12-27T18:30:40.905Z,92.70
2017-12-27T18:33:08.320Z,92.40
2017-12-27T18:35:36.540Z,92.10
2017-12-27T18:38:03.988Z,92.10
2017-12-27T18:40:31.425Z,92.20
2017-12-27T18:42:58.872Z,92.30
2017-12-27T18:45:26.493Z,92.20
2017-12-27T18:47:53.925Z,92.60
2017-12-27T18:50:21.432Z,92.00
2017-12-27T18:52:48.816Z,91.90
2017-12-27T18:55:16.269Z,92.00
2017-12-27T18:57:44.453Z,92.10
2017-12-27T19:00:11.889Z,92.10
2017-12-27T19:02:40.080Z,93.40
2017-12-27T19:05:07.505Z,93.40
2017-12-27T19:07:34.930Z,93.40
2017-12-27T19:10:02.376Z,93.30
2017-12-27T19:12:29.807Z,93.20
2017-12-27T19:14:57.998Z,93.20
2017-12-27T19:17:25.420Z,93.20
2017-12-27T19:19:53.617Z,93.50
2017-12-27T19:22:21.107Z,93.40
2017-12-27T19:24:48.542Z,93.20
2017-12-27T19:27:15.972Z,92.80
2017-12-27T19:29:44.186Z,92.90
2017-12-27T19:32:11.609Z,92.90
2017-12-27T19:34:39.791Z,93.10
2017-12-27T19:37:07.287Z,93.10
2017-12-27T19:39:34.740Z,92.80
2017-12-27T19:42:02.174Z,92.10
2017-12-27T19:44:29.610Z,92.00
2017-12-27T19:46:57.805Z,92.70
2017-12-27T19:49:25.231Z,92.70
2017-12-27T19:51:53.449Z,93.30
2017-12-27T19:54:20.891Z,93.20
2017-12-27T19:56:48.308Z,93.00
2017-12-27T19:59:15.832Z,93.00
2017-12-27T20:01:43.283Z,92.20
2017-12-27T20:04:10.697Z,91.80
2017-12-27T20:06:38.893Z,91.80
2017-12-27T20:09:06.320Z,91.40
2017-12-27T20:11:34.528Z,91.60
2017-12-27T20:14:01.996Z,91.20
2017-12-27T20:16:29.447Z,91.40
2017-12-27T20:18:56.871Z,91.40
2017-12-27T20:21:25.064Z,91.20
2017-12-27T20:23:52.552Z,91.20
2017-12-27T20:26:19.990Z,91.10
2017-12-27T20:28:47.433Z,91.10
2017-12-27T20:31:15.641Z,90.90
2017-12-27T20:33:43.064Z,90.90
2017-12-27T20:36:11.273Z,90.80
2017-12-27T20:38:38.694Z,90.80
2017-12-27T20:41:06.931Z,90.90
2017-12-27T20:43:34.404Z,90.90
2017-12-27T20:46:01.864Z,91.00
2017-12-27T20:48:29.282Z,90.80
2017-12-27T20:50:56.720Z,90.80
2017-12-27T20:53:24.216Z,90.60
2017-12-27T20:55:51.692Z,90.50
2017-12-27T20:58:19.115Z,90.50
2017-12-27T21:00:46.589Z,90.40
2017-12-27T21:03:14.012Z,90.40
2017-12-27T21:05:41.447Z,90.40
2017-12-27T21:08:09.670Z,90.30
2017-12-27T21:10:37.085Z,90.30
2017-12-27T21:13:06.333Z,91.60
2017-12-27T21:15:33.759Z,91.60
2017-12-27T21:18:01.280Z,91.80
2017-12-27T21:20:28.801Z,91.90
2017-12-27T21:22:56.249Z,91.50
2017-12-27T21:25:23.681Z,91.40
2017-12-27T21:27:51.113Z,91.90
2017-12-27T21:30:18.562Z,92.10
2017-12-27T21:32:45.993Z,92.00
2017-12-27T21:35:13.448Z,92.20
2017-12-27T21:37:40.914Z,92.40
2017-12-27T21:40:08.344Z,92.20
2017-12-27T21:42:35.906Z,92.40
2017-12-27T21:45:03.341Z,92.30
2017-12-27T21:47:36.377Z,93.40
2017-12-27T21:50:03.808Z,94.30
2017-12-27T21:52:31.237Z,95.30
2017-12-27T21:54:59.448Z,95.60
2017-12-27T21:57:26.916Z,95.60
2017-12-27T22:00:00.005Z,96.50
2017-12-27T22:02:27.432Z,96.20
2017-12-27T22:04:54.864Z,96.40
2017-12-27T22:07:23.069Z,95.90
2017-12-27T22:09:50.520Z,95.90
2017-12-27T22:12:18.737Z,95.60
2017-12-27T22:14:46.154Z,95.60
2017-12-27T22:17:13.580Z,95.30
2017-12-27T22:19:41.779Z,96.60
2017-12-27T22:22:10.398Z,97.00
2017-12-27T22:24:37.817Z,95.70
2017-12-27T22:27:05.262Z,95.20
2017-12-27T22:29:33.474Z,94.10
2017-12-27T22:32:00.908Z,94.00
2017-12-27T22:34:28.363Z,94.50
2017-12-27T22:36:56.563Z,95.30
2017-12-27T22:39:23.999Z,95.30
2017-12-27T22:41:51.429Z,95.80
2017-12-27T22:44:19.662Z,95.20
2017-12-27T22:46:47.090Z,94.90
2017-12-27T22:49:14.523Z,95.10
2017-12-27T22:51:41.941Z,95.40
2017-12-27T22:54:09.394Z,95.50
2017-12-27T22:56:36.849Z,95.40
2017-12-27T22:59:04.313Z,95.30
2017-12-27T23:01:31.742Z,94.40
2017-12-27T23:03:59.205Z,94.90
2017-12-27T23:06:27.107Z,95.20
2017-12-27T23:08:54.562Z,95.10
2017-12-27T23:11:21.996Z,95.50
2017-12-27T23:13:49.437Z,95.90
2017-12-27T23:16:16.904Z,96.30
2017-12-27T23:18:44.366Z,96.50
2017-12-27T23:21:11.783Z,96.20
2017-12-27T23:23:40.018Z,96.60
2017-12-27T23:26:07.457Z,96.50
2017-12-27T23:28:34.927Z,97.10
2017-12-27T23:31:02.375Z,97.60
2017-12-27T23:33:29.800Z,97.20
2017-12-27T23:35:57.994Z,97.00
2017-12-27T23:38:27.167Z,96.90
2017-12-27T23:40:55.720Z,97.00
2017-12-27T23:43:23.161Z,97.00
2017-12-27T23:45:50.580Z,97.70
2017-12-27T23:48:18.017Z,97.20
2017-12-27T23:50:46.209Z,95.70
2017-12-27T23:53:13.641Z,95.70
2017-12-27T23:55:41.059Z,95.50
2017-12-27T23:58:08.502Z,95.80
